Terminal Aerodrome Forecast
Issued by NWS Charleston, WV

Home | Current Version | Previous Version | Text Only | Print | Product List | Glossary On
Versions: 1 2 3 4 5 6 7 8 9 10 11 12 13 14 15 16 17 18 19 20 21 22 23 24
299
FTUS41 KRLX 241500 AAA
TAFBKW
TAF AMD
KBKW 241500Z 2415/2512 30005KT P6SM SCT025 SCT250
     FM242000 28010KT P6SM BKN050
     FM250000 31005KT P6SM SCT250
     FM250600 32003KT P6SM VCFG SCT010=

USA.gov is the U.S. government's official web portal to all federal, state and local government web resources and services.